Time;durP1;ratioP1;P1;durP2;ratioP2;P2;SDS_P1;SDS_P2;PMS_P1;PMS_P2;Temp;Humidity;BMP_temperature;BMP_pressure;BME280_temperature;BME280_humidity;BME280_pressure;Samples;Min_cycle;Max_cycle;Signal;HPM_P1;HPM_P2
2022/01/16 00:05:40;;;;;;;14.82;5.37;;;;;;;-0.40;68.03;100908.44;4488049;31;35189;-81
2022/01/16 00:08:26;;;;;;;22.02;6.30;;;;;;;-0.69;68.73;100905.94;4487871;31;35798;-80
2022/01/16 00:11:12;;;;;;;14.85;5.80;;;;;;;-1.63;71.78;100892.47;4475336;31;34413;-81
2022/01/16 00:14:02;;;;;;;17.73;6.03;;;;;;;-1.37;72.49;100887.22;4477849;31;35060;-81
2022/01/16 00:16:48;;;;;;;13.07;5.35;;;;;;;-1.29;71.55;100882.69;4464477;31;34556;-81
2022/01/16 00:19:35;;;;;;;15.90;5.43;;;;;;;-1.72;73.28;100873.00;4492678;31;35876;-81
2022/01/16 00:22:25;;;;;;;16.70;6.30;;;;;;;-1.65;73.61;100891.84;4487424;31;34238;-80
2022/01/16 00:25:11;;;;;;;9.48;4.82;;;;;;;-1.99;74.61;100898.06;4480435;31;34104;-81
2022/01/16 00:27:58;;;;;;;12.40;5.62;;;;;;;-2.39;75.82;100905.84;4477962;31;35597;-81
2022/01/16 00:30:44;;;;;;;12.95;4.75;;;;;;;-1.30;71.50;100940.19;4475913;31;35911;-81
2022/01/16 00:33:33;;;;;;;16.77;4.87;;;;;;;-1.79;72.34;100893.66;4475774;31;35432;-81
2022/01/16 00:36:21;;;;;;;13.15;4.93;;;;;;;-2.06;73.54;100880.06;4481996;31;34295;-81
2022/01/16 00:39:07;;;;;;;13.13;5.75;;;;;;;-1.86;71.95;100898.97;4477507;31;34550;-80
2022/01/16 00:41:54;;;;;;;15.73;5.72;;;;;;;-3.85;81.25;100899.78;4470913;31;34964;-80
2022/01/16 00:44:40;;;;;;;13.45;5.93;;;;;;;-4.11;83.37;100890.38;4476373;31;34345;-80
2022/01/16 00:47:26;;;;;;;19.00;5.87;;;;;;;-3.13;79.59;100887.44;4480480;31;35051;-80
2022/01/16 00:50:13;;;;;;;17.87;6.00;;;;;;;-3.04;77.90;100878.28;4486017;31;35243;-81
2022/01/16 00:53:00;;;;;;;14.57;5.53;;;;;;;-3.23;79.56;100888.59;4483356;31;34917;-80
2022/01/16 00:55:46;;;;;;;17.05;6.18;;;;;;;-3.29;79.73;100880.47;4477070;31;35439;-81
2022/01/16 00:58:33;;;;;;;13.23;5.32;;;;;;;-3.75;81.88;100902.19;4491329;31;35172;-81
2022/01/16 01:01:19;;;;;;;17.37;5.30;;;;;;;-3.27;79.31;100879.28;4479695;31;34579;-81
2022/01/16 01:04:06;;;;;;;17.42;6.30;;;;;;;-3.21;79.97;100883.88;4474139;31;35057;-81
2022/01/16 01:06:52;;;;;;;14.98;5.78;;;;;;;-3.33;78.68;100888.09;4492211;31;34718;-81
2022/01/16 01:09:39;;;;;;;14.25;4.90;;;;;;;-3.37;79.48;100880.59;4477486;31;35090;-81
2022/01/16 01:12:30;;;;;;;16.80;5.37;;;;;;;-2.81;76.89;100908.41;4489765;31;35640;-81
2022/01/16 01:15:16;;;;;;;12.93;4.75;;;;;;;-3.56;79.07;100906.12;4480194;31;35014;-81
2022/01/16 01:18:02;;;;;;;14.38;5.05;;;;;;;-4.18;82.71;100926.13;4472956;31;34629;-81
2022/01/16 01:20:50;;;;;;;13.20;4.40;;;;;;;-4.78;86.41;100824.34;4478162;31;34103;-81
2022/01/16 01:23:37;;;;;;;16.67;5.95;;;;;;;-3.71;81.10;100807.06;4475423;31;34741;-81
2022/01/16 01:26:29;;;;;;;16.15;4.97;;;;;;;-4.29;83.76;100825.69;4473465;31;35598;-81
2022/01/16 01:29:19;;;;;;;15.40;5.37;;;;;;;-3.56;82.10;100817.72;4488458;31;34879;-81
2022/01/16 01:32:06;;;;;;;17.15;5.70;;;;;;;-3.82;81.97;100815.56;4490441;31;34333;-81
2022/01/16 01:34:54;;;;;;;10.80;4.43;;;;;;;-3.30;80.53;100858.22;4481718;31;35574;-83
2022/01/16 01:37:41;;;;;;;18.23;4.68;;;;;;;-2.47;75.96;100852.34;4477662;31;35595;-83
2022/01/16 01:40:28;;;;;;;12.82;4.32;;;;;;;-2.86;75.73;100894.72;4467749;31;34599;-83
2022/01/16 01:52:16;;;;;;;14.05;4.40;;;;;;;-3.21;77.88;100913.38;4489786;31;34142;-82
2022/01/16 01:55:03;;;;;;;14.50;4.68;;;;;;;-3.63;79.34;100858.66;4480351;31;34098;-83
2022/01/16 01:57:50;;;;;;;16.55;5.22;;;;;;;-3.88;79.65;100870.72;4480255;31;34691;-82
2022/01/16 02:00:41;;;;;;;17.80;4.93;;;;;;;-3.73;79.40;100879.56;4476577;31;34896;-83
2022/01/16 02:06:24;;;;;;;13.45;4.47;;;;;;;-3.24;76.48;100870.84;4476284;31;34170;-83
2022/01/16 02:09:10;;;;;;;12.98;4.75;;;;;;;-2.59;73.87;100871.66;4494108;31;35142;-83
2022/01/16 02:11:57;;;;;;;13.52;4.43;;;;;;;-2.50;73.23;100870.47;4470569;31;35092;-83
2022/01/16 02:15:05;;;;;;;11.65;4.30;;;;;;;-2.28;72.10;100884.69;4489942;31;35499;-83
2022/01/16 02:36:33;;;;;;;12.40;3.97;;;;;;;-2.06;69.81;100896.19;4479931;31;34987;-84
2022/01/16 02:39:24;;;;;;;9.30;3.95;;;;;;;-1.96;69.17;100887.78;4480348;31;34878;-84
2022/01/16 02:42:12;;;;;;;15.68;4.18;;;;;;;-1.96;68.61;100901.22;4495403;31;34831;-84
2022/01/16 02:45:03;;;;;;;16.75;5.22;;;;;;;-2.37;69.75;100906.50;4483576;31;35566;-83
2022/01/16 02:47:50;;;;;;;16.73;6.25;;;;;;;-2.24;70.03;100908.47;4477222;31;33724;-84
2022/01/16 02:50:41;;;;;;;15.77;5.93;;;;;;;-2.03;69.30;100898.47;4492367;31;35471;-84
2022/01/16 02:53:27;;;;;;;17.55;5.07;;;;;;;-2.17;69.98;100904.78;4481173;31;34218;-84
2022/01/16 02:56:15;;;;;;;13.88;5.10;;;;;;;-2.42;70.60;100892.81;4490610;31;34595;-84
2022/01/16 02:59:02;;;;;;;16.23;5.15;;;;;;;-2.98;72.66;100893.59;4477442;31;34981;-84
2022/01/16 03:01:49;;;;;;;10.85;4.45;;;;;;;-3.45;75.32;100881.53;4494665;31;35682;-84
2022/01/16 03:04:35;;;;;;;13.62;4.28;;;;;;;-2.95;74.04;100882.47;4488972;31;35190;-84
2022/01/16 03:07:22;;;;;;;11.05;4.40;;;;;;;-2.76;73.55;100880.97;4468745;31;34601;-84
2022/01/16 03:13:00;;;;;;;12.65;4.60;;;;;;;-2.92;73.29;100897.38;4477786;31;35810;-84
2022/01/16 03:15:50;;;;;;;14.18;4.78;;;;;;;-2.42;70.50;100885.63;4479604;31;34133;-85
2022/01/16 03:21:54;;;;;;;12.23;4.20;;;;;;;-3.13;73.55;100882.06;4492644;31;34057;-85
2022/01/16 03:24:44;;;;;;;10.52;4.00;;;;;;;-3.03;73.06;100879.91;4491762;31;33559;-85
2022/01/16 03:27:31;;;;;;;13.82;4.35;;;;;;;-3.19;74.00;100873.81;4482751;31;34103;-85
2022/01/16 03:30:20;;;;;;;16.83;4.10;;;;;;;-3.15;73.88;100873.41;4494322;31;35555;-85
2022/01/16 03:33:07;;;;;;;10.55;3.05;;;;;;;-2.74;71.84;100873.59;4493935;31;35064;-85
2022/01/16 03:35:56;;;;;;;12.23;4.15;;;;;;;-2.57;70.85;100874.13;4478948;31;34202;-84
2022/01/16 03:38:42;;;;;;;10.32;3.58;;;;;;;-2.58;70.58;100878.69;4470400;31;34179;-84
2022/01/16 03:41:29;;;;;;;12.10;3.62;;;;;;;-2.63;70.57;100869.56;4489164;31;34457;-84
2022/01/16 03:44:16;;;;;;;10.63;3.72;;;;;;;-2.38;69.14;100872.62;4489466;31;34450;-85
2022/01/16 03:47:03;;;;;;;9.48;3.70;;;;;;;-2.39;69.00;100871.81;4476955;31;34652;-84
2022/01/16 03:49:52;;;;;;;8.35;3.50;;;;;;;-2.38;68.24;100865.41;4479013;31;33911;-84
2022/01/16 03:52:38;;;;;;;12.63;3.55;;;;;;;-2.45;68.53;100861.81;4477939;31;34580;-85
2022/01/16 03:55:25;;;;;;;17.10;4.75;;;;;;;-2.47;68.64;100863.06;4485842;31;36038;-84
2022/01/16 03:58:11;;;;;;;12.40;3.92;;;;;;;-2.39;68.11;100860.22;4475665;31;34450;-84
2022/01/16 04:00:57;;;;;;;12.20;4.20;;;;;;;-2.58;68.19;100859.88;4487426;31;33773;-84
2022/01/16 04:03:44;;;;;;;9.38;3.85;;;;;;;-2.79;69.05;100852.72;4467738;31;34669;-84
2022/01/16 04:06:30;;;;;;;14.13;4.82;;;;;;;-3.07;70.36;100846.47;4488743;31;34479;-84
2022/01/16 04:09:20;;;;;;;11.00;4.10;;;;;;;-2.83;70.29;100848.75;4479008;31;34166;-83
2022/01/16 04:12:07;;;;;;;12.57;4.15;;;;;;;-3.06;70.62;100848.97;4487964;31;34235;-84
2022/01/16 04:17:46;;;;;;;13.07;5.65;;;;;;;-3.50;71.81;100857.16;4479200;31;34967;-84
2022/01/16 04:20:33;;;;;;;13.57;5.62;;;;;;;-4.12;75.12;100853.94;4492983;31;33562;-84
2022/01/16 04:23:19;;;;;;;16.83;5.78;;;;;;;-3.46;73.10;100863.81;4476216;31;34285;-84
2022/01/16 04:26:05;;;;;;;17.80;5.40;;;;;;;-3.11;71.16;100861.28;4491426;31;35558;-84
2022/01/16 04:28:55;;;;;;;13.65;5.00;;;;;;;-3.73;72.80;100854.63;4478190;31;35631;-83
2022/01/16 04:31:42;;;;;;;11.20;5.10;;;;;;;-3.32;71.77;100860.25;4488152;31;35025;-84
2022/01/16 04:34:28;;;;;;;12.15;4.57;;;;;;;-3.04;70.74;100856.81;4475644;31;34194;-84
2022/01/16 04:37:14;;;;;;;12.18;4.72;;;;;;;-2.95;69.68;100866.38;4478144;31;34753;-83
2022/01/16 04:40:03;;;;;;;17.67;4.47;;;;;;;-3.09;69.61;100848.53;4486399;31;34625;-84
2022/01/16 04:45:55;;;;;;;12.48;4.18;;;;;;;-3.21;70.78;100858.94;4491424;31;32857;-83
2022/01/16 04:48:42;;;;;;;12.23;4.55;;;;;;;-3.10;69.29;100853.06;4476387;31;35546;-84
2022/01/16 04:51:30;;;;;;;16.33;4.93;;;;;;;-3.15;69.59;100860.00;4476793;31;35937;-83
2022/01/16 04:54:18;;;;;;;12.20;4.90;;;;;;;-3.09;69.22;100853.87;4467537;31;35427;-83
2022/01/16 04:57:04;;;;;;;14.55;4.93;;;;;;;-3.45;70.28;100849.38;4477724;32;34204;-84
2022/01/16 04:59:51;;;;;;;13.27;5.47;;;;;;;-3.78;71.52;100844.47;4485360;31;34359;-84
2022/01/16 05:02:37;;;;;;;13.95;5.20;;;;;;;-3.60;71.76;100840.56;4475123;31;36083;-83
2022/01/16 05:05:23;;;;;;;12.13;4.93;;;;;;;-3.44;71.77;100845.69;4491066;31;34549;-83
2022/01/16 05:08:10;;;;;;;16.37;5.80;;;;;;;-3.31;71.42;100855.72;4492462;31;34802;-84
2022/01/16 05:10:57;;;;;;;13.55;5.12;;;;;;;-3.55;71.68;100843.50;4488184;31;34582;-83
2022/01/16 05:16:48;;;;;;;11.85;4.55;;;;;;;-3.75;71.83;100843.28;4467541;31;34292;-84
2022/01/16 05:19:34;;;;;;;17.55;5.40;;;;;;;-3.45;71.66;100844.03;4483398;31;34407;-84
2022/01/16 05:22:20;;;;;;;14.80;5.03;;;;;;;-3.27;70.00;100847.13;4494283;31;34073;-84
2022/01/16 05:25:13;;;;;;;12.75;5.05;;;;;;;-3.15;69.34;100839.38;4478389;31;33762;-84
2022/01/16 05:27:59;;;;;;;13.48;5.15;;;;;;;-3.38;69.32;100834.22;4469973;31;34599;-84
2022/01/16 05:30:46;;;;;;;12.07;5.20;;;;;;;-3.40;70.20;100834.38;4490895;31;33155;-84
2022/01/16 05:33:32;;;;;;;13.23;5.03;;;;;;;-3.33;69.90;100847.03;4476453;31;35613;-84
2022/01/16 05:36:19;;;;;;;16.62;5.50;;;;;;;-3.83;71.40;100844.19;4481429;31;35917;-85
2022/01/16 05:39:05;;;;;;;14.05;5.28;;;;;;;-3.42;70.29;100840.94;4481646;31;35520;-84
2022/01/16 05:41:52;;;;;;;15.75;5.82;;;;;;;-3.32;69.65;100843.34;4480836;31;35105;-83
2022/01/16 05:44:38;;;;;;;15.70;6.22;;;;;;;-3.33;69.87;100853.25;4475813;31;34594;-85
2022/01/16 05:47:24;;;;;;;19.00;6.93;;;;;;;-4.17;72.65;100852.81;4473824;31;34916;-85
2022/01/16 05:50:11;;;;;;;27.83;10.10;;;;;;;-4.58;75.04;100864.78;4476182;31;34176;-85
2022/01/16 05:53:03;;;;;;;37.83;14.80;;;;;;;-4.17;74.54;100856.31;4482342;31;34233;-85
2022/01/16 05:55:49;;;;;;;37.80;17.35;;;;;;;-3.69;73.16;100859.41;4490429;31;33521;-84
2022/01/16 05:58:36;;;;;;;42.13;17.92;;;;;;;-3.90;74.90;100862.88;4481775;31;35629;-85
2022/01/16 06:01:22;;;;;;;41.92;17.52;;;;;;;-3.78;74.83;100876.63;4477413;31;35444;-85
2022/01/16 06:04:09;;;;;;;46.00;17.87;;;;;;;-3.54;74.11;100880.00;4479733;31;33730;-84
2022/01/16 06:06:55;;;;;;;39.58;19.20;;;;;;;-4.20;76.39;100872.75;4477753;31;35571;-85
2022/01/16 06:09:42;;;;;;;44.22;19.45;;;;;;;-3.53;74.54;100871.78;4465459;31;34830;-85
2022/01/16 06:12:28;;;;;;;45.05;19.00;;;;;;;-3.84;75.71;100882.72;4491902;31;34689;-84
2022/01/16 06:15:14;;;;;;;43.53;19.23;;;;;;;-3.56;75.03;100877.47;4490092;31;34441;-85
2022/01/16 06:18:01;;;;;;;41.95;17.77;;;;;;;-3.60;74.95;100878.06;4490580;31;34636;-84
2022/01/16 06:20:47;;;;;;;40.40;17.67;;;;;;;-3.39;74.26;100880.78;4475418;31;35948;-85
2022/01/16 06:23:34;;;;;;;43.42;17.67;;;;;;;-3.85;75.48;100881.03;4488963;31;35533;-85
2022/01/16 06:26:20;;;;;;;42.70;18.23;;;;;;;-3.86;75.74;100890.09;4474494;31;33990;-84
2022/01/16 06:29:07;;;;;;;42.45;17.35;;;;;;;-3.77;74.85;100891.66;4490508;31;34638;-85
2022/01/16 06:31:53;;;;;;;40.22;18.65;;;;;;;-4.00;76.16;100885.59;4488688;31;35909;-84
2022/01/16 06:34:39;;;;;;;38.35;16.12;;;;;;;-3.53;74.56;100890.53;4480754;31;34561;-84
2022/01/16 06:37:26;;;;;;;43.40;17.08;;;;;;;-3.54;73.97;100885.34;4491741;31;35229;-85
2022/01/16 06:40:13;;;;;;;33.72;13.10;;;;;;;-3.26;72.78;100894.34;4491848;31;33443;-85
2022/01/16 06:43:00;;;;;;;28.87;14.00;;;;;;;-3.16;71.58;100899.38;4478223;31;34559;-84
2022/01/16 06:45:46;;;;;;;33.67;13.95;;;;;;;-3.15;70.83;100894.87;4470339;31;35532;-85
2022/01/16 06:48:32;;;;;;;27.17;10.95;;;;;;;-3.76;71.55;100890.63;4469881;31;35053;-84
2022/01/16 06:51:19;;;;;;;27.13;10.35;;;;;;;-3.89;71.71;100893.16;4489268;31;34603;-85
2022/01/16 06:54:06;;;;;;;22.65;10.65;;;;;;;-4.30;73.27;100882.88;4474718;31;36019;-85
2022/01/16 06:56:52;;;;;;;25.23;10.45;;;;;;;-5.95;78.42;100885.09;4479716;31;35430;-85
2022/01/16 06:59:39;;;;;;;24.10;11.00;;;;;;;-6.95;84.09;100899.75;4487384;31;34304;-85
2022/01/16 07:02:27;;;;;;;25.90;11.20;;;;;;;-5.30;79.33;100893.75;4477540;31;34566;-85
2022/01/16 07:05:13;;;;;;;23.87;11.38;;;;;;;-4.48;74.80;100885.09;4492674;31;36116;-85
2022/01/16 07:08:00;;;;;;;30.45;12.05;;;;;;;-4.14;73.21;100882.72;4468311;31;37050;-85
2022/01/16 07:10:46;;;;;;;25.33;10.68;;;;;;;-4.57;74.16;100881.66;4487973;31;34394;-84
2022/01/16 07:13:32;;;;;;;34.97;13.32;;;;;;;-4.26;73.66;100881.53;4480051;31;35518;-84
2022/01/16 07:16:19;;;;;;;30.30;13.35;;;;;;;-4.34;74.79;100881.59;4490797;31;34965;-84
2022/01/16 07:19:05;;;;;;;31.95;14.27;;;;;;;-3.81;72.89;100898.41;4479988;31;34431;-84
2022/01/16 07:21:53;;;;;;;30.15;13.35;;;;;;;-4.14;74.20;100898.78;4493077;31;34211;-85
2022/01/16 07:24:39;;;;;;;32.42;14.10;;;;;;;-3.84;74.31;100906.81;4479086;31;34602;-85
2022/01/16 07:27:26;;;;;;;36.08;14.63;;;;;;;-3.52;73.50;100902.91;4494363;31;35030;-85
2022/01/16 07:30:12;;;;;;;33.03;14.87;;;;;;;-3.72;74.12;100908.00;4474791;31;34539;-85
2022/01/16 07:32:59;;;;;;;32.58;13.70;;;;;;;-3.31;73.63;100915.50;4472121;31;35151;-84
2022/01/16 07:35:45;;;;;;;33.22;15.57;;;;;;;-3.27;73.90;100914.13;4468293;31;35470;-85
2022/01/16 07:38:32;;;;;;;39.10;15.48;;;;;;;-3.09;73.59;100902.97;4477491;31;35404;-85
2022/01/16 07:41:18;;;;;;;35.50;15.27;;;;;;;-3.06;73.78;100902.59;4490040;31;34566;-85
2022/01/16 07:44:05;;;;;;;32.42;13.93;;;;;;;-3.22;75.03;100902.81;4478479;31;34972;-85
2022/01/16 07:46:51;;;;;;;32.83;14.05;;;;;;;-3.30;75.61;100910.97;4467644;31;34310;-85
2022/01/16 07:49:37;;;;;;;31.20;13.18;;;;;;;-3.13;75.12;100912.44;4493058;31;34955;-85
2022/01/16 07:52:23;;;;;;;32.88;15.90;;;;;;;-3.00;74.62;100914.41;4492773;31;35416;-85
2022/01/16 07:55:10;;;;;;;34.97;15.30;;;;;;;-3.12;75.30;100916.75;4475398;31;34280;-84
2022/01/16 07:57:57;;;;;;;41.58;15.60;;;;;;;-3.31;75.48;100915.50;4494767;31;33467;-86
2022/01/16 08:00:50;;;;;;;34.47;15.30;;;;;;;-3.11;75.83;100912.22;4491555;31;34648;-85
2022/01/16 08:03:37;;;;;;;33.80;15.43;;;;;;;-2.73;73.95;100902.91;4480026;31;34883;-85
2022/01/16 08:06:25;;;;;;;31.67;14.05;;;;;;;-2.90;75.38;100911.37;4485853;31;34441;-85
2022/01/16 08:09:11;;;;;;;32.72;14.40;;;;;;;-2.61;74.31;100899.72;4476481;31;35590;-85
2022/01/16 08:11:58;;;;;;;29.67;13.18;;;;;;;-2.45;73.44;100894.03;4486517;31;36019;-85
2022/01/16 08:14:44;;;;;;;31.95;13.43;;;;;;;-2.68;74.19;100882.72;4488987;31;33447;-83
2022/01/16 08:17:31;;;;;;;33.90;14.25;;;;;;;-2.43;73.55;100881.25;4474789;31;34213;-81
2022/01/16 08:20:18;;;;;;;33.00;13.73;;;;;;;-2.61;74.48;100878.25;4481939;31;35256;-81
2022/01/16 08:23:04;;;;;;;33.60;14.10;;;;;;;-2.16;73.32;100884.13;4478298;31;34886;-81
2022/01/16 08:25:52;;;;;;;32.33;13.75;;;;;;;-2.27;73.11;100891.72;4486523;31;37282;-81
2022/01/16 08:28:38;;;;;;;28.80;13.02;;;;;;;-2.30;73.39;100886.75;4476432;31;34244;-81
2022/01/16 08:31:24;;;;;;;28.67;12.73;;;;;;;-1.97;72.74;100875.34;4479508;31;34620;-80
2022/01/16 08:34:11;;;;;;;26.10;13.10;;;;;;;-1.75;71.81;100868.03;4483018;31;34952;-81
2022/01/16 08:36:57;;;;;;;28.80;12.68;;;;;;;-1.54;71.19;100872.44;4479769;31;34768;-83
2022/01/16 08:39:43;;;;;;;33.47;12.25;;;;;;;-1.66;71.14;100863.31;4492947;31;34339;-83
2022/01/16 08:42:30;;;;;;;30.58;13.23;;;;;;;-1.61;71.25;100848.25;4483675;31;34203;-81
2022/01/16 08:45:16;;;;;;;29.92;12.55;;;;;;;-1.55;71.65;100843.09;4481093;31;34946;-82
2022/01/16 08:48:04;;;;;;;31.90;12.85;;;;;;;-1.19;70.67;100840.09;4477774;31;35527;-83
2022/01/16 08:50:58;;;;;;;30.60;13.27;;;;;;;-1.44;70.95;100837.97;4476823;31;35039;-80
2022/01/16 08:53:45;;;;;;;31.48;14.95;;;;;;;-0.83;70.20;100833.50;4475138;31;34673;-81
2022/01/16 08:56:32;;;;;;;32.80;14.85;;;;;;;-0.89;70.45;100834.31;4484757;31;35983;-81
2022/01/16 08:59:18;;;;;;;33.85;14.98;;;;;;;-1.07;70.64;100819.63;4481230;31;34713;-81
2022/01/16 09:02:05;;;;;;;35.10;16.58;;;;;;;-1.08;71.05;100825.19;4481023;31;33801;-80
2022/01/16 09:04:51;;;;;;;33.60;16.98;;;;;;;-1.20;71.65;100823.09;4475194;31;34293;-82
2022/01/16 09:07:37;;;;;;;35.58;17.30;;;;;;;-1.01;70.92;100818.78;4490385;31;35070;-82
2022/01/16 09:10:25;;;;;;;34.72;16.00;;;;;;;-1.17;72.29;100816.50;4488189;31;34754;-83
2022/01/16 09:13:12;;;;;;;32.15;14.13;;;;;;;-1.22;72.68;100819.00;4486181;31;33904;-83
2022/01/16 09:15:59;;;;;;;30.73;14.55;;;;;;;-0.64;70.75;100816.53;4474438;31;35542;-83
2022/01/16 09:18:47;;;;;;;34.58;14.27;;;;;;;-0.85;70.47;100814.03;4471064;31;34510;-82
2022/01/16 09:21:34;;;;;;;29.25;14.70;;;;;;;-0.39;68.27;100821.25;4482924;31;36001;-82
2022/01/16 09:24:23;;;;;;;30.10;14.35;;;;;;;-0.54;69.18;100819.63;4492228;31;33857;-82
2022/01/16 09:27:09;;;;;;;29.98;13.40;;;;;;;-0.82;69.69;100813.66;4462013;31;35489;-82
2022/01/16 09:29:56;;;;;;;28.80;13.98;;;;;;;-0.92;70.20;100822.09;4479811;31;34618;-82
2022/01/16 09:32:42;;;;;;;30.90;13.50;;;;;;;-0.33;68.68;100817.72;4481591;31;34616;-82
2022/01/16 09:35:31;;;;;;;30.73;13.57;;;;;;;-0.24;68.12;100803.00;4482957;31;35051;-82
2022/01/16 09:38:18;;;;;;;32.25;13.65;;;;;;;-0.18;67.85;100810.22;4480765;31;34253;-82
2022/01/16 09:41:05;;;;;;;32.15;14.00;;;;;;;-0.35;68.77;100806.31;4482799;31;34892;-82
2022/01/16 09:43:51;;;;;;;32.03;14.60;;;;;;;-0.20;68.89;100800.69;4458507;31;35445;-82
2022/01/16 09:46:40;;;;;;;30.67;13.95;;;;;;;-0.17;69.12;100801.12;4464865;31;34155;-81
2022/01/16 09:49:26;;;;;;;33.45;15.55;;;;;;;0.19;67.97;100787.06;4495229;31;34617;-82
2022/01/16 09:52:13;;;;;;;32.30;15.25;;;;;;;-0.25;68.66;100791.38;4486416;31;35015;-82
2022/01/16 09:54:59;;;;;;;35.70;15.38;;;;;;;0.41;67.87;100787.59;4481046;31;34807;-82
2022/01/16 09:57:45;;;;;;;29.30;13.88;;;;;;;0.79;66.14;100786.72;4498511;31;34280;-82
2022/01/16 10:00:31;;;;;;;29.58;13.23;;;;;;;0.73;65.95;100786.78;4485961;31;34635;-82
2022/01/16 10:03:44;;;;;;;34.72;14.48;;;;;;;0.98;65.67;100781.41;4478822;31;35014;-82
2022/01/16 10:06:32;;;;;;;31.67;14.38;;;;;;;1.08;65.53;100781.72;4486298;31;35415;-82
2022/01/16 10:09:22;;;;;;;28.73;14.45;;;;;;;0.95;65.59;100771.06;4498845;31;34377;-82
2022/01/16 10:12:17;;;;;;;31.50;15.75;;;;;;;0.33;67.37;100768.16;4492645;31;35791;-82
2022/01/16 10:15:22;;;;;;;28.95;14.00;;;;;;;0.82;66.81;100764.69;4495797;31;34990;-82
2022/01/16 10:18:08;;;;;;;29.55;14.05;;;;;;;0.84;66.53;100757.22;4474209;31;35406;-82
2022/01/16 10:20:55;;;;;;;28.20;14.45;;;;;;;0.80;66.62;100758.72;4488294;31;33754;-83
2022/01/16 10:23:42;;;;;;;30.95;15.23;;;;;;;0.84;66.75;100761.78;4494254;31;35724;-82
2022/01/16 10:26:29;;;;;;;30.83;14.77;;;;;;;0.95;66.46;100753.00;4466675;31;34959;-82
2022/01/16 10:29:20;;;;;;;31.15;14.52;;;;;;;1.00;66.39;100741.53;4484472;31;34500;-82
2022/01/16 10:32:10;;;;;;;;;;;;;;;0.68;67.38;100749.66;4484016;31;33680;-82
2022/01/16 10:35:12;;;;;;;29.35;13.45;;;;;;;1.25;65.88;100744.19;4487346;31;35540;-83
2022/01/16 10:37:59;;;;;;;33.10;15.98;;;;;;;1.82;63.10;100742.13;4486475;31;35058;-84
2022/01/16 10:40:50;;;;;;;38.13;17.62;;;;;;;2.08;62.58;100749.13;4492908;31;34534;-83
2022/01/16 10:43:42;;;;;;;36.30;16.98;;;;;;;2.38;61.19;100732.88;4467920;31;34222;-83
2022/01/16 10:46:28;;;;;;;31.58;16.45;;;;;;;2.52;60.62;100732.69;4470309;31;34589;-84
2022/01/16 10:49:18;;;;;;;37.63;17.52;;;;;;;2.17;61.66;100720.69;4482484;31;35123;-83
2022/01/16 10:52:07;;;;;;;31.73;17.45;;;;;;;2.34;60.73;100723.59;4483945;31;34767;-84
2022/01/16 10:54:53;;;;;;;35.72;16.70;;;;;;;2.57;60.11;100724.72;4482370;31;34330;-84
2022/01/16 10:57:40;;;;;;;39.22;17.80;;;;;;;2.70;59.67;100733.47;4484468;31;34657;-84
2022/01/16 11:00:26;;;;;;;34.58;16.52;;;;;;;3.00;59.67;100727.12;4476950;31;35995;-84
2022/01/16 11:03:14;;;;;;;41.40;17.98;;;;;;;3.40;57.80;100729.13;4486230;31;35245;-85
2022/01/16 11:06:02;;;;;;;35.97;17.55;;;;;;;3.64;56.93;100727.22;4497785;31;35214;-84
2022/01/16 11:08:58;;;;;;;34.60;16.40;;;;;;;3.48;57.85;100719.84;4480843;31;34576;-84
2022/01/16 11:11:59;;;;;;;40.72;19.30;;;;;;;3.12;58.00;100727.12;4473039;31;34524;-85
2022/01/16 11:14:46;;;;;;;38.80;18.87;;;;;;;2.66;60.05;100716.00;4492998;31;35558;-85
2022/01/16 11:17:38;;;;;;;37.90;19.02;;;;;;;3.14;58.43;100719.59;4476742;31;34231;-84
2022/01/16 11:20:29;;;;;;;35.38;17.90;;;;;;;3.00;59.39;100708.19;4471925;31;34230;-84
2022/01/16 11:23:48;;;;;;;37.80;18.27;;;;;;;2.99;58.81;100709.25;4483613;31;35872;-85
2022/01/16 11:26:34;;;;;;;36.65;17.95;;;;;;;2.99;58.57;100698.41;4474636;31;34610;-85
2022/01/16 11:29:20;;;;;;;35.33;16.83;;;;;;;2.75;60.56;100704.84;4498334;31;33775;-84
2022/01/16 11:32:07;;;;;;;32.90;17.48;;;;;;;2.54;61.08;100690.81;4481786;31;34620;-83
2022/01/16 11:34:55;;;;;;;35.40;17.23;;;;;;;2.17;63.00;100680.13;4497905;31;35968;-84
2022/01/16 11:37:41;;;;;;;40.67;18.77;;;;;;;1.71;64.71;100670.78;4484709;31;34626;-84
2022/01/16 11:40:46;;;;;;;42.62;19.40;;;;;;;1.87;65.21;100665.78;4474966;31;35078;-83
2022/01/16 11:43:33;;;;;;;39.42;17.73;;;;;;;0.97;67.81;100658.28;4481209;31;34664;-84
2022/01/16 11:46:24;;;;;;;38.95;17.60;;;;;;;1.66;66.20;100656.31;4486205;31;34899;-84
2022/01/16 11:49:17;;;;;;;44.90;21.50;;;;;;;2.00;64.72;100662.91;4480983;31;35621;-79
2022/01/16 11:52:13;;;;;;;34.30;17.05;;;;;;;1.95;64.81;100660.06;4485114;31;35333;-78
2022/01/16 11:55:07;;;;;;;39.88;16.98;;;;;;;2.35;63.23;100657.59;4494562;31;35230;-78
2022/01/16 11:58:01;;;;;;;36.28;17.75;;;;;;;2.44;63.33;100660.81;4477617;31;34976;-78
2022/01/16 12:00:48;;;;;;;33.97;16.25;;;;;;;2.34;64.15;100649.75;4484554;31;34564;-78
2022/01/16 12:03:35;;;;;;;33.10;16.20;;;;;;;2.75;62.50;100645.31;4482141;31;33880;-78
2022/01/16 12:06:32;;;;;;;33.83;15.30;;;;;;;2.80;61.38;100643.56;4479660;31;34340;-78
2022/01/16 12:09:35;;;;;;;34.47;16.75;;;;;;;2.61;62.01;100634.72;4485999;31;35915;-78
2022/01/16 12:12:22;;;;;;;32.35;16.42;;;;;;;2.58;62.00;100626.25;4496465;31;34656;-76
2022/01/16 12:15:14;;;;;;;32.25;16.55;;;;;;;2.46;62.90;100613.53;4497155;31;35139;-76
2022/01/16 12:18:01;;;;;;;35.53;16.52;;;;;;;2.47;63.06;100620.56;4485155;31;34362;-76
2022/01/16 12:20:48;;;;;;;35.63;16.30;;;;;;;2.48;63.41;100624.13;4471362;31;35063;-76
2022/01/16 12:23:47;;;;;;;31.85;15.90;;;;;;;2.43;62.92;100619.41;4497819;31;34580;-76
2022/01/16 12:26:40;;;;;;;37.00;15.80;;;;;;;2.51;63.18;100609.31;4477982;31;35195;-76
2022/01/16 12:29:28;;;;;;;36.10;15.82;;;;;;;2.58;62.76;100613.53;4492380;31;35584;-76
2022/01/16 12:32:52;;;;;;;29.27;15.13;;;;;;;2.34;63.28;100611.88;4496861;31;35033;-76
2022/01/16 12:35:46;;;;;;;34.33;15.27;;;;;;;2.50;63.77;100608.47;4482129;31;34788;-76
2022/01/16 12:38:38;;;;;;;32.83;16.02;;;;;;;2.89;61.66;100606.94;4482242;31;34268;-78
2022/01/16 12:41:43;;;;;;;35.60;16.62;;;;;;;2.99;61.75;100603.66;4486544;31;35546;-77
2022/01/16 12:44:29;;;;;;;33.95;15.52;;;;;;;2.92;61.61;100602.94;4481923;31;34941;-77
2022/01/16 12:47:19;;;;;;;32.00;16.62;;;;;;;3.02;60.97;100603.19;4496768;31;35706;-77
2022/01/16 12:50:13;;;;;;;32.72;15.25;;;;;;;3.21;60.40;100609.25;4483184;31;34502;-77
2022/01/16 12:52:59;;;;;;;38.85;17.37;;;;;;;2.46;62.77;100605.41;4475209;31;34669;-78
2022/01/16 12:55:46;;;;;;;28.83;15.65;;;;;;;3.07;61.69;100605.97;4474394;31;34930;-78
2022/01/16 12:58:32;;;;;;;30.73;16.20;;;;;;;3.34;60.58;100605.47;4472802;31;34541;-77
2022/01/16 13:01:19;;;;;;;38.13;16.85;;;;;;;3.54;59.32;100596.94;4482135;31;33140;-78
2022/01/16 13:04:06;;;;;;;36.42;16.87;;;;;;;3.57;59.29;100597.28;4463094;31;34619;-77
2022/01/16 13:06:53;;;;;;;37.55;16.37;;;;;;;2.54;63.14;100585.31;4493342;31;36044;-77
2022/01/16 13:09:40;;;;;;;35.22;15.43;;;;;;;2.88;61.97;100588.25;4473440;31;35395;-77
2022/01/16 13:12:29;;;;;;;36.88;15.32;;;;;;;2.98;61.95;100580.34;4474765;31;34177;-78
2022/01/16 13:15:21;;;;;;;38.45;17.05;;;;;;;3.42;60.66;100586.13;4474348;31;33436;-76
2022/01/16 13:18:11;;;;;;;33.97;15.68;;;;;;;3.72;59.68;100574.22;4481098;31;34999;-77
2022/01/16 13:21:05;;;;;;;35.30;16.25;;;;;;;3.93;58.50;100576.25;4468840;31;34701;-77
2022/01/16 13:23:52;;;;;;;32.30;16.15;;;;;;;3.80;59.44;100574.66;4488707;31;35239;-77
2022/01/16 13:26:38;;;;;;;34.33;16.42;;;;;;;3.88;58.76;100575.34;4474551;31;35455;-77
2022/01/16 13:29:25;;;;;;;33.20;15.65;;;;;;;4.08;57.51;100574.88;4484918;31;34781;-77
2022/01/16 13:32:17;;;;;;;35.72;15.60;;;;;;;3.41;59.04;100573.63;4471706;31;34613;-77
2022/01/16 13:35:14;;;;;;;33.75;15.73;;;;;;;3.91;57.96;100575.69;4472197;31;33991;-77
2022/01/16 13:38:08;;;;;;;35.00;18.55;;;;;;;3.95;57.75;100568.69;4475235;31;34514;-77
2022/01/16 13:40:59;;;;;;;40.08;21.80;;;;;;;3.89;58.06;100556.09;4482396;31;33700;-77